Snow/Ice From: 16-12-2017 16:00 Until: 17-12-2017 16:00 warning for: Snow/Ice Level: Yellow info button

Although rather usual in this region, locally or potentially dangerous phenomena are expected. (such as local winds, summer thunderstorms, rising streams or high waves) Be aware and pay attention to the latest weather updates, especially if you carry out activities exposed to weather or close to a stream or shoreline. 


Meteo18 Weather Cam more information Meteo18 Weather Cam


Thunder radar more information blitzortung!


warning for Snow/Ice more information rain snow radar


Visit our other weather sites:

Template documentation
and downloads

And another site



Weather Underground History page Text

Daily Summary for May 26, 2017 Units:  Both    English   Metric
« Previous Day
Next Day »
Daily Weekly Monthly Yearly Custom
  High: Low: Average:
Temperature: 84.6 °F /  29.2 °C 55.9 °F /  13.3 °C 70 °F /  21.1 °C
Dew Point: 64.2 °F /  17.9 °C 51.6 °F /  10.9 °C 57.9 °F /  14.4 °C
Humidity: 87 % 45 % 67 %
Wind Speed: 10 mph /  16.1 km/h - 2.5 mph /  4 km/h
Wind Gust: 12 mph /  19.3 km/h - -
Wind:- - East
Pressure: 30.1 in /  1018.5 hPa 29.9 in /  1014.1 hPa -
Precipitation: 0 in /  0.0 mm    
Historical Graphs
 
 
Tabular Data for May 26, 2017
Time Temperature Dew Point Pressure Wind Wind Speed Wind Gust Humidity Rainfall Rate (Hourly)
00:02 64.6 °F /  18.1 °C 54.1 °F /  12.3 °C 30.1 in /  1018.5 hPa NE 4 mph /  6.4 km/h 6 mph /  9.7 km/h 69 % 0 in /  0.0 mm
00:12 63.7 °F /  17.6 °C 54.1 °F /  12.3 °C 30.1 in /  1018.2 hPa NE 4 mph /  6.4 km/h 6 mph /  9.7 km/h 71 % 0 in /  0.0 mm
00:17 63.1 °F /  17.3 °C 54 °F /  12.2 °C 30.1 in /  1018.2 hPa NE 4 mph /  6.4 km/h 6 mph /  9.7 km/h 72 % 0 in /  0.0 mm
00:22 63 °F /  17.2 °C 54.1 °F /  12.3 °C 30.1 in /  1018.5 hPa ENE 3 mph /  4.8 km/h 7 mph /  11.3 km/h 73 % 0 in /  0.0 mm
00:32 63 °F /  17.2 °C 54.1 °F /  12.3 °C 30.1 in /  1018.2 hPa NE 5 mph /  8.0 km/h 8 mph /  12.9 km/h 73 % 0 in /  0.0 mm
00:37 63.1 °F /  17.3 °C 54 °F /  12.2 °C 30.1 in /  1018.2 hPa NNE 4 mph /  6.4 km/h 8 mph /  12.9 km/h 72 % 0 in /  0.0 mm
00:42 63.3 °F /  17.4 °C 54.1 °F /  12.3 °C 30.1 in /  1018.2 hPa NNE 5 mph /  8.0 km/h 10 mph /  16.1 km/h 72 % 0 in /  0.0 mm
00:47 63.3 °F /  17.4 °C 54.1 °F /  12.3 °C 30.1 in /  1018.2 hPa NE 6 mph /  9.7 km/h 10 mph /  16.1 km/h 72 % 0 in /  0.0 mm
00:57 63.3 °F /  17.4 °C 53.8 °F /  12.1 °C 30.1 in /  1018.2 hPa NE 6 mph /  9.7 km/h 8 mph /  12.9 km/h 71 % 0 in /  0.0 mm
01:02 63.1 °F /  17.3 °C 54 °F /  12.2 °C 30.1 in /  1018.2 hPa NNE 5 mph /  8.0 km/h 8 mph /  12.9 km/h 72 % 0 in /  0.0 mm
01:07 63 °F /  17.2 °C 53.8 °F /  12.1 °C 30.1 in /  1018.2 hPa NE 5 mph /  8.0 km/h 8 mph /  12.9 km/h 72 % 0 in /  0.0 mm
01:12 62.6 °F /  17.0 °C 53.8 °F /  12.1 °C 30.1 in /  1018.2 hPa NE 4 mph /  6.4 km/h 8 mph /  12.9 km/h 73 % 0 in /  0.0 mm
01:17 62.4 °F /  16.9 °C 53.6 °F /  12.0 °C 30.1 in /  1017.8 hPa NE 4 mph /  6.4 km/h 8 mph /  12.9 km/h 73 % 0 in /  0.0 mm
01:27 62.4 °F /  16.9 °C 53.2 °F /  11.8 °C 30.1 in /  1018.2 hPa NNE 6 mph /  9.7 km/h 8 mph /  12.9 km/h 72 % 0 in /  0.0 mm
01:32 62.6 °F /  17.0 °C 53.4 °F /  11.9 °C 30.1 in /  1017.8 hPa North 3 mph /  4.8 km/h 8 mph /  12.9 km/h 72 % 0 in /  0.0 mm
01:37 62.8 °F /  17.1 °C 53.6 °F /  12.0 °C 30.1 in /  1017.8 hPa NNE 6 mph /  9.7 km/h 7 mph /  11.3 km/h 72 % 0 in /  0.0 mm
01:42 62.6 °F /  17.0 °C 53.4 °F /  11.9 °C 30.1 in /  1017.8 hPa NNE 3 mph /  4.8 km/h 7 mph /  11.3 km/h 72 % 0 in /  0.0 mm
01:47 62.1 °F /  16.7 °C 53.2 °F /  11.8 °C 30.1 in /  1017.8 hPa NNW 1 mph /  1.6 km/h 6 mph /  9.7 km/h 73 % 0 in /  0.0 mm
01:52 61.5 °F /  16.4 °C 53.2 °F /  11.8 °C 30.1 in /  1017.8 hPa NNE 1 mph /  1.6 km/h 6 mph /  9.7 km/h 74 % 0 in /  0.0 mm
01:57 61.2 °F /  16.2 °C 53.2 °F /  11.8 °C 30.1 in /  1017.8 hPa NE 1 mph /  1.6 km/h 5 mph /  8.0 km/h 75 % 0 in /  0.0 mm
02:02 60.6 °F /  15.9 °C 53.1 °F /  11.7 °C 30.1 in /  1017.8 hPa North 2 mph /  3.2 km/h 5 mph /  8.0 km/h 76 % 0 in /  0.0 mm
02:12 60.1 °F /  15.6 °C 52.9 °F /  11.6 °C 30.1 in /  1017.8 hPa Calm   4 mph /  6.4 km/h 77 % 0 in /  0.0 mm
02:17 59.9 °F /  15.5 °C 53.1 °F /  11.7 °C 30.1 in /  1017.8 hPa NNE 2 mph /  3.2 km/h 4 mph /  6.4 km/h 78 % 0 in /  0.0 mm
02:22 59.7 °F /  15.4 °C 52.9 °F /  11.6 °C 30.1 in /  1017.8 hPa NNE 1 mph /  1.6 km/h 4 mph /  6.4 km/h 78 % 0 in /  0.0 mm
02:32 59.4 °F /  15.2 °C 52.5 °F /  11.4 °C 30.1 in /  1017.8 hPa Calm   3 mph /  4.8 km/h 78 % 0 in /  0.0 mm
02:37 59.2 °F /  15.1 °C 52.7 °F /  11.5 °C 30.1 in /  1017.8 hPa NNE 3 mph /  4.8 km/h 3 mph /  4.8 km/h 79 % 0 in /  0.0 mm
02:42 59 °F /  15.0 °C 52.5 °F /  11.4 °C 30.1 in /  1017.5 hPa NE 2 mph /  3.2 km/h 3 mph /  4.8 km/h 79 % 0 in /  0.0 mm
02:47 58.8 °F /  14.9 °C 52.3 °F /  11.3 °C 30.1 in /  1017.8 hPa NNE 2 mph /  3.2 km/h 3 mph /  4.8 km/h 79 % 0 in /  0.0 mm
02:52 58.8 °F /  14.9 °C 52.7 °F /  11.5 °C 30.1 in /  1017.5 hPa NNE 1 mph /  1.6 km/h 4 mph /  6.4 km/h 80 % 0 in /  0.0 mm
02:57 58.6 °F /  14.8 °C 52.5 °F /  11.4 °C 30.1 in /  1017.5 hPa NE 2 mph /  3.2 km/h 4 mph /  6.4 km/h 80 % 0 in /  0.0 mm
03:02 58.5 °F /  14.7 °C 52.3 °F /  11.3 °C 30.1 in /  1017.5 hPa Calm   4 mph /  6.4 km/h 80 % 0 in /  0.0 mm
03:12 58.1 °F /  14.5 °C 52.3 °F /  11.3 °C 30.1 in /  1017.5 hPa NNE 3 mph /  4.8 km/h 5 mph /  8.0 km/h 81 % 0 in /  0.0 mm
03:17 57.9 °F /  14.4 °C 52.5 °F /  11.4 °C 30.1 in /  1017.5 hPa NE 4 mph /  6.4 km/h 6 mph /  9.7 km/h 82 % 0 in /  0.0 mm
03:22 57.9 °F /  14.4 °C 52.5 °F /  11.4 °C 30.1 in /  1017.5 hPa North 1 mph /  1.6 km/h 6 mph /  9.7 km/h 82 % 0 in /  0.0 mm
03:27 57.9 °F /  14.4 °C 52.5 °F /  11.4 °C 30.1 in /  1017.5 hPa North 2 mph /  3.2 km/h 6 mph /  9.7 km/h 82 % 0 in /  0.0 mm
03:32 57.9 °F /  14.4 °C 52.5 °F /  11.4 °C 30 in /  1017.2 hPa Calm   6 mph /  9.7 km/h 82 % 0 in /  0.0 mm
03:37 57.7 °F /  14.3 °C 52.7 °F /  11.5 °C 30 in /  1017.2 hPa NNW 4 mph /  6.4 km/h 6 mph /  9.7 km/h 83 % 0 in /  0.0 mm
03:42 57.7 °F /  14.3 °C 52.7 °F /  11.5 °C 30 in /  1017.2 hPa NNE 4 mph /  6.4 km/h 6 mph /  9.7 km/h 83 % 0 in /  0.0 mm
03:52 57.2 °F /  14.0 °C 52.3 °F /  11.3 °C 30 in /  1017.2 hPa NNE 3 mph /  4.8 km/h 7 mph /  11.3 km/h 84 % 0 in /  0.0 mm
03:57 57 °F /  13.9 °C 52.2 °F /  11.2 °C 30 in /  1017.2 hPa NE 3 mph /  4.8 km/h 6 mph /  9.7 km/h 84 % 0 in /  0.0 mm
04:02 57 °F /  13.9 °C 52.2 °F /  11.2 °C 30 in /  1017.2 hPa NE 2 mph /  3.2 km/h 6 mph /  9.7 km/h 84 % 0 in /  0.0 mm
04:12 57.6 °F /  14.2 °C 52.7 °F /  11.5 °C 30 in /  1017.2 hPa North 1 mph /  1.6 km/h 6 mph /  9.7 km/h 84 % 0 in /  0.0 mm
04:17 57.4 °F /  14.1 °C 52.5 °F /  11.4 °C 30 in /  1017.2 hPa NNE 5 mph /  8.0 km/h 7 mph /  11.3 km/h 84 % 0 in /  0.0 mm
04:22 57.2 °F /  14.0 °C 52.7 °F /  11.5 °C 30 in /  1017.2 hPa Calm   7 mph /  11.3 km/h 85 % 0 in /  0.0 mm
04:32 57.4 °F /  14.1 °C 52.9 °F /  11.6 °C 30 in /  1017.2 hPa NNW 5 mph /  8.0 km/h 9 mph /  14.5 km/h 85 % 0 in /  0.0 mm
04:37 57.4 °F /  14.1 °C 52.5 °F /  11.4 °C 30 in /  1017.2 hPa NNW 1 mph /  1.6 km/h 6 mph /  9.7 km/h 84 % 0 in /  0.0 mm
04:42 57.6 °F /  14.2 °C 52.7 °F /  11.5 °C 30 in /  1017.2 hPa North 1 mph /  1.6 km/h 6 mph /  9.7 km/h 84 % 0 in /  0.0 mm
04:52 57.4 °F /  14.1 °C 52.5 °F /  11.4 °C 30 in /  1017.2 hPa Calm   5 mph /  8.0 km/h 84 % 0 in /  0.0 mm
04:57 57 °F /  13.9 °C 52.5 °F /  11.4 °C 30 in /  1017.2 hPa NNW 3 mph /  4.8 km/h 3 mph /  4.8 km/h 85 % 0 in /  0.0 mm
05:02 57 °F /  13.9 °C 52.5 °F /  11.4 °C 30 in /  1017.2 hPa North 5 mph /  8.0 km/h 5 mph /  8.0 km/h 85 % 0 in /  0.0 mm
05:12 56.7 °F /  13.7 °C 52.5 °F /  11.4 °C 30 in /  1017.2 hPa NNE 3 mph /  4.8 km/h 5 mph /  8.0 km/h 86 % 0 in /  0.0 mm
05:17 56.7 °F /  13.7 °C 52.5 °F /  11.4 °C 30 in /  1017.2 hPa North 2 mph /  3.2 km/h 6 mph /  9.7 km/h 86 % 0 in /  0.0 mm
05:22 56.7 °F /  13.7 °C 52.5 °F /  11.4 °C 30 in /  1017.2 hPa North 4 mph /  6.4 km/h 6 mph /  9.7 km/h 86 % 0 in /  0.0 mm
05:32 56.7 °F /  13.7 °C 52.5 °F /  11.4 °C 30 in /  1017.2 hPa NNE 3 mph /  4.8 km/h 6 mph /  9.7 km/h 86 % 0 in /  0.0 mm
05:37 56.5 °F /  13.6 °C 52.3 °F /  11.3 °C 30 in /  1017.2 hPa NNE 4 mph /  6.4 km/h 6 mph /  9.7 km/h 86 % 0 in /  0.0 mm
05:42 56.5 °F /  13.6 °C 52.3 °F /  11.3 °C 30 in /  1017.2 hPa NNE 1 mph /  1.6 km/h 6 mph /  9.7 km/h 86 % 0 in /  0.0 mm
05:47 56.7 °F /  13.7 °C 52.5 °F /  11.4 °C 30 in /  1017.2 hPa NNE 2 mph /  3.2 km/h 7 mph /  11.3 km/h 86 % 0 in /  0.0 mm
05:52 56.8 °F /  13.8 °C 52.3 °F /  11.3 °C 30 in /  1017.2 hPa NE 2 mph /  3.2 km/h 7 mph /  11.3 km/h 85 % 0 in /  0.0 mm
06:02 56.5 °F /  13.6 °C 52 °F /  11.1 °C 30 in /  1017.2 hPa NNW 1 mph /  1.6 km/h 5 mph /  8.0 km/h 85 % 0 in /  0.0 mm
06:07 56.5 °F /  13.6 °C 52.3 °F /  11.3 °C 30 in /  1017.2 hPa Calm   4 mph /  6.4 km/h 86 % 0 in /  0.0 mm
06:12 56.5 °F /  13.6 °C 52.3 °F /  11.3 °C 30 in /  1017.2 hPa North 1 mph /  1.6 km/h 4 mph /  6.4 km/h 86 % 0 in /  0.0 mm
06:17 56.1 °F /  13.4 °C 51.6 °F /  10.9 °C 30 in /  1017.2 hPa North 2 mph /  3.2 km/h 4 mph /  6.4 km/h 85 % 0 in /  0.0 mm
06:22 55.9 °F /  13.3 °C 51.8 °F /  11.0 °C 30 in /  1017.2 hPa NNE 4 mph /  6.4 km/h 4 mph /  6.4 km/h 86 % 0 in /  0.0 mm
06:32 56.5 °F /  13.6 °C 52.7 °F /  11.5 °C 30 in /  1017.2 hPa NNE 3 mph /  4.8 km/h 4 mph /  6.4 km/h 87 % 0 in /  0.0 mm
06:37 57.4 °F /  14.1 °C 52.5 °F /  11.4 °C 30 in /  1017.2 hPa Calm   4 mph /  6.4 km/h 84 % 0 in /  0.0 mm
06:42 57.6 °F /  14.2 °C 52.5 °F /  11.4 °C 30 in /  1017.2 hPa Calm   4 mph /  6.4 km/h 83 % 0 in /  0.0 mm
06:52 58.1 °F /  14.5 °C 52.7 °F /  11.5 °C 30 in /  1017.2 hPa Calm   4 mph /  6.4 km/h 82 % 0 in /  0.0 mm
07:02 58.8 °F /  14.9 °C 53.1 °F /  11.7 °C 30 in /  1017.2 hPa NNE 2 mph /  3.2 km/h 2 mph /  3.2 km/h 81 % 0 in /  0.0 mm
07:07 59.2 °F /  15.1 °C 53.1 °F /  11.7 °C 30 in /  1016.8 hPa NNE 1 mph /  1.6 km/h 2 mph /  3.2 km/h 80 % 0 in /  0.0 mm
07:12 59.4 °F /  15.2 °C 53.2 °F /  11.8 °C 30 in /  1016.8 hPa NNE 3 mph /  4.8 km/h 5 mph /  8.0 km/h 80 % 0 in /  0.0 mm
07:17 59.5 °F /  15.3 °C 53.4 °F /  11.9 °C 30 in /  1017.2 hPa ENE 3 mph /  4.8 km/h 5 mph /  8.0 km/h 80 % 0 in /  0.0 mm
07:22 59.7 °F /  15.4 °C 53.2 °F /  11.8 °C 30 in /  1017.2 hPa NNE 3 mph /  4.8 km/h 7 mph /  11.3 km/h 79 % 0 in /  0.0 mm
07:32 60.1 °F /  15.6 °C 53.6 °F /  12.0 °C 30 in /  1017.2 hPa NNE 2 mph /  3.2 km/h 8 mph /  12.9 km/h 79 % 0 in /  0.0 mm
07:42 60.3 °F /  15.7 °C 53.1 °F /  11.7 °C 30 in /  1017.2 hPa NE 6 mph /  9.7 km/h 8 mph /  12.9 km/h 77 % 0 in /  0.0 mm
07:52 60.8 °F /  16.0 °C 53.6 °F /  12.0 °C 30 in /  1017.2 hPa ENE 3 mph /  4.8 km/h 9 mph /  14.5 km/h 77 % 0 in /  0.0 mm
07:57 61.2 °F /  16.2 °C 54 °F /  12.2 °C 30 in /  1017.2 hPa ENE 3 mph /  4.8 km/h 9 mph /  14.5 km/h 77 % 0 in /  0.0 mm
08:02 61.5 °F /  16.4 °C 54.7 °F /  12.6 °C 30 in /  1017.2 hPa East 2 mph /  3.2 km/h 8 mph /  12.9 km/h 78 % 0 in /  0.0 mm
08:12 61.9 °F /  16.6 °C 54.3 °F /  12.4 °C 30 in /  1017.2 hPa ENE 2 mph /  3.2 km/h 5 mph /  8.0 km/h 76 % 0 in /  0.0 mm
08:17 62.2 °F /  16.8 °C 54.5 °F /  12.5 °C 30 in /  1017.2 hPa East 4 mph /  6.4 km/h 5 mph /  8.0 km/h 76 % 0 in /  0.0 mm
08:22 62.2 °F /  16.8 °C 54.5 °F /  12.5 °C 30 in /  1017.2 hPa East 3 mph /  4.8 km/h 6 mph /  9.7 km/h 76 % 0 in /  0.0 mm
08:32 62.8 °F /  17.1 °C 54.3 °F /  12.4 °C 30.1 in /  1017.5 hPa ENE 4 mph /  6.4 km/h 6 mph /  9.7 km/h 74 % 0 in /  0.0 mm
08:42 62.8 °F /  17.1 °C 54.7 °F /  12.6 °C 30.1 in /  1017.5 hPa NNE 3 mph /  4.8 km/h 6 mph /  9.7 km/h 75 % 0 in /  0.0 mm
08:52 63.1 °F /  17.3 °C 54.7 °F /  12.6 °C 30.1 in /  1017.5 hPa NE 2 mph /  3.2 km/h 6 mph /  9.7 km/h 74 % 0 in /  0.0 mm
09:02 63.7 °F /  17.6 °C 54.9 °F /  12.7 °C 30.1 in /  1017.5 hPa NNE 4 mph /  6.4 km/h 6 mph /  9.7 km/h 73 % 0 in /  0.0 mm
09:12 64 °F /  17.8 °C 55.2 °F /  12.9 °C 30 in /  1017.2 hPa ENE 3 mph /  4.8 km/h 7 mph /  11.3 km/h 73 % 0 in /  0.0 mm
09:22 64.8 °F /  18.2 °C 55.6 °F /  13.1 °C 30 in /  1017.2 hPa ENE 4 mph /  6.4 km/h 7 mph /  11.3 km/h 72 % 0 in /  0.0 mm
09:32 65.1 °F /  18.4 °C 55.4 °F /  13.0 °C 30 in /  1017.2 hPa ENE 5 mph /  8.0 km/h 8 mph /  12.9 km/h 71 % 0 in /  0.0 mm
09:42 65.7 °F /  18.7 °C 56.3 °F /  13.5 °C 30 in /  1017.2 hPa NE 4 mph /  6.4 km/h 8 mph /  12.9 km/h 72 % 0 in /  0.0 mm
09:47 66 °F /  18.9 °C 55.9 °F /  13.3 °C 30 in /  1017.2 hPa ENE 2 mph /  3.2 km/h 8 mph /  12.9 km/h 70 % 0 in /  0.0 mm
09:52 66.4 °F /  19.1 °C 56.3 °F /  13.5 °C 30 in /  1017.2 hPa NE 4 mph /  6.4 km/h 7 mph /  11.3 km/h 70 % 0 in /  0.0 mm
10:02 67.3 °F /  19.6 °C 57.2 °F /  14.0 °C 30 in /  1017.2 hPa NE 5 mph /  8.0 km/h 7 mph /  11.3 km/h 70 % 0 in /  0.0 mm
10:12 67.5 °F /  19.7 °C 56.5 °F /  13.6 °C 30 in /  1017.2 hPa NE 5 mph /  8.0 km/h 7 mph /  11.3 km/h 68 % 0 in /  0.0 mm
10:17 67.6 °F /  19.8 °C 56.3 °F /  13.5 °C 30 in /  1017.2 hPa NE 3 mph /  4.8 km/h 7 mph /  11.3 km/h 67 % 0 in /  0.0 mm
10:22 67.8 °F /  19.9 °C 56.5 °F /  13.6 °C 30 in /  1016.8 hPa ENE 5 mph /  8.0 km/h 8 mph /  12.9 km/h 67 % 0 in /  0.0 mm
10:32 68.7 °F /  20.4 °C 57.4 °F /  14.1 °C 30 in /  1016.8 hPa ENE 8 mph /  12.9 km/h 10 mph /  16.1 km/h 67 % 0 in /  0.0 mm
10:37 68.9 °F /  20.5 °C 56.7 °F /  13.7 °C 30 in /  1016.5 hPa NE 4 mph /  6.4 km/h 10 mph /  16.1 km/h 65 % 0 in /  0.0 mm
10:42 69.3 °F /  20.7 °C 57 °F /  13.9 °C 30 in /  1016.5 hPa ENE 6 mph /  9.7 km/h 10 mph /  16.1 km/h 65 % 0 in /  0.0 mm
10:47 69.3 °F /  20.7 °C 56.5 °F /  13.6 °C 30 in /  1016.5 hPa NE 5 mph /  8.0 km/h 10 mph /  16.1 km/h 64 % 0 in /  0.0 mm
10:57 69.6 °F /  20.9 °C 57.7 °F /  14.3 °C 30 in /  1016.8 hPa ENE 5 mph /  8.0 km/h 11 mph /  17.7 km/h 66 % 0 in /  0.0 mm
11:02 70.2 °F /  21.2 °C 57.4 °F /  14.1 °C 30 in /  1016.5 hPa ENE 6 mph /  9.7 km/h 11 mph /  17.7 km/h 64 % 0 in /  0.0 mm
11:12 70.7 °F /  21.5 °C 57.9 °F /  14.4 °C 30 in /  1016.5 hPa ENE 4 mph /  6.4 km/h 10 mph /  16.1 km/h 64 % 0 in /  0.0 mm
11:17 71.1 °F /  21.7 °C 57.7 °F /  14.3 °C 30 in /  1016.1 hPa ENE 9 mph /  14.5 km/h 10 mph /  16.1 km/h 63 % 0 in /  0.0 mm
11:22 71.1 °F /  21.7 °C 57.7 °F /  14.3 °C 30 in /  1016.5 hPa NE 5 mph /  8.0 km/h 12 mph /  19.3 km/h 63 % 0 in /  0.0 mm
11:32 71.4 °F /  21.9 °C 57.7 °F /  14.3 °C 30 in /  1016.5 hPa East 6 mph /  9.7 km/h 11 mph /  17.7 km/h 62 % 0 in /  0.0 mm
11:37 72 °F /  22.2 °C 57.4 °F /  14.1 °C 30 in /  1016.5 hPa East 4 mph /  6.4 km/h 11 mph /  17.7 km/h 60 % 0 in /  0.0 mm
11:42 72.3 °F /  22.4 °C 58.1 °F /  14.5 °C 30 in /  1016.1 hPa NE 6 mph /  9.7 km/h 10 mph /  16.1 km/h 61 % 0 in /  0.0 mm
11:52 72.9 °F /  22.7 °C 58.6 °F /  14.8 °C 30 in /  1016.1 hPa ENE 10 mph /  16.1 km/h 11 mph /  17.7 km/h 61 % 0 in /  0.0 mm
12:02 73.2 °F /  22.9 °C 59 °F /  15.0 °C 30 in /  1016.1 hPa East 2 mph /  3.2 km/h 12 mph /  19.3 km/h 61 % 0 in /  0.0 mm
12:12 73.8 °F /  23.2 °C 58.5 °F /  14.7 °C 30 in /  1016.1 hPa ENE 7 mph /  11.3 km/h 12 mph /  19.3 km/h 59 % 0 in /  0.0 mm
12:17 74.1 °F /  23.4 °C 59.7 °F /  15.4 °C 30 in /  1016.1 hPa ESE 5 mph /  8.0 km/h 12 mph /  19.3 km/h 61 % 0 in /  0.0 mm
12:22 74.5 °F /  23.6 °C 60.1 °F /  15.6 °C 30 in /  1016.1 hPa ENE 5 mph /  8.0 km/h 11 mph /  17.7 km/h 61 % 0 in /  0.0 mm
12:32 75 °F /  23.9 °C 58.8 °F /  14.9 °C 30 in /  1016.1 hPa ENE 2 mph /  3.2 km/h 11 mph /  17.7 km/h 57 % 0 in /  0.0 mm
12:37 75.4 °F /  24.1 °C 59.5 °F /  15.3 °C 30 in /  1016.1 hPa ENE 6 mph /  9.7 km/h 9 mph /  14.5 km/h 58 % 0 in /  0.0 mm
12:42 75.4 °F /  24.1 °C 59.5 °F /  15.3 °C 30 in /  1016.1 hPa East 5 mph /  8.0 km/h 9 mph /  14.5 km/h 58 % 0 in /  0.0 mm
12:47 75.6 °F /  24.2 °C 59.7 °F /  15.4 °C 30 in /  1016.1 hPa NE 6 mph /  9.7 km/h 9 mph /  14.5 km/h 58 % 0 in /  0.0 mm
12:52 75.9 °F /  24.4 °C 59.2 °F /  15.1 °C 30 in /  1016.1 hPa ENE 5 mph /  8.0 km/h 10 mph /  16.1 km/h 56 % 0 in /  0.0 mm
13:02 76.6 °F /  24.8 °C 59.2 °F /  15.1 °C 30 in /  1016.1 hPa ENE 3 mph /  4.8 km/h 9 mph /  14.5 km/h 55 % 0 in /  0.0 mm
13:12 77.2 °F /  25.1 °C 59.2 °F /  15.1 °C 30 in /  1016.1 hPa Calm   9 mph /  14.5 km/h 54 % 0 in /  0.0 mm
13:17 77.7 °F /  25.4 °C 60.8 °F /  16.0 °C 30 in /  1016.1 hPa ESE 5 mph /  8.0 km/h 8 mph /  12.9 km/h 56 % 0 in /  0.0 mm
13:22 77.5 °F /  25.3 °C 61.2 °F /  16.2 °C 30 in /  1016.1 hPa East 5 mph /  8.0 km/h 8 mph /  12.9 km/h 57 % 0 in /  0.0 mm
13:32 77.4 °F /  25.2 °C 60.4 °F /  15.8 °C 30 in /  1016.1 hPa NE 3 mph /  4.8 km/h 10 mph /  16.1 km/h 56 % 0 in /  0.0 mm
13:42 78.3 °F /  25.7 °C 61.3 °F /  16.3 °C 30 in /  1015.8 hPa SE 2 mph /  3.2 km/h 10 mph /  16.1 km/h 56 % 0 in /  0.0 mm
13:52 78.6 °F /  25.9 °C 60.6 °F /  15.9 °C 30 in /  1015.8 hPa Calm   7 mph /  11.3 km/h 54 % 0 in /  0.0 mm
14:02 79.7 °F /  26.5 °C 62.1 °F /  16.7 °C 30 in /  1015.8 hPa SE 1 mph /  1.6 km/h 6 mph /  9.7 km/h 55 % 0 in /  0.0 mm
14:12 80.4 °F /  26.9 °C 62.2 °F /  16.8 °C 30 in /  1015.8 hPa Calm   6 mph /  9.7 km/h 54 % 0 in /  0.0 mm
14:17 81 °F /  27.2 °C 62.8 °F /  17.1 °C 30 in /  1015.5 hPa ESE 2 mph /  3.2 km/h 8 mph /  12.9 km/h 54 % 0 in /  0.0 mm
14:22 80.4 °F /  26.9 °C 61.7 °F /  16.5 °C 30 in /  1015.8 hPa SE 2 mph /  3.2 km/h 8 mph /  12.9 km/h 53 % 0 in /  0.0 mm
14:32 80.4 °F /  26.9 °C 61.7 °F /  16.5 °C 30 in /  1015.5 hPa Calm   8 mph /  12.9 km/h 53 % 0 in /  0.0 mm
14:37 81.1 °F /  27.3 °C 62.4 °F /  16.9 °C 30 in /  1015.5 hPa ESE 6 mph /  9.7 km/h 6 mph /  9.7 km/h 53 % 0 in /  0.0 mm
14:42 81.3 °F /  27.4 °C 62.1 °F /  16.7 °C 30 in /  1015.5 hPa East 4 mph /  6.4 km/h 6 mph /  9.7 km/h 52 % 0 in /  0.0 mm
14:47 81.3 °F /  27.4 °C 62.6 °F /  17.0 °C 30 in /  1015.5 hPa SE 5 mph /  8.0 km/h 7 mph /  11.3 km/h 53 % 0 in /  0.0 mm
14:52 81 °F /  27.2 °C 61.7 °F /  16.5 °C 30 in /  1015.5 hPa East 2 mph /  3.2 km/h 7 mph /  11.3 km/h 52 % 0 in /  0.0 mm
14:57 81 °F /  27.2 °C 61.7 °F /  16.5 °C 30 in /  1015.5 hPa East 1 mph /  1.6 km/h 9 mph /  14.5 km/h 52 % 0 in /  0.0 mm
15:02 81 °F /  27.2 °C 62.2 °F /  16.8 °C 30 in /  1015.5 hPa NNE 7 mph /  11.3 km/h 9 mph /  14.5 km/h 53 % 0 in /  0.0 mm
15:12 81 °F /  27.2 °C 63.3 °F /  17.4 °C 30 in /  1015.5 hPa SE 3 mph /  4.8 km/h 9 mph /  14.5 km/h 55 % 0 in /  0.0 mm
15:17 81.1 °F /  27.3 °C 62.4 °F /  16.9 °C 30 in /  1015.5 hPa ENE 3 mph /  4.8 km/h 9 mph /  14.5 km/h 53 % 0 in /  0.0 mm
15:22 81.1 °F /  27.3 °C 62.4 °F /  16.9 °C 30 in /  1015.5 hPa SE 4 mph /  6.4 km/h 8 mph /  12.9 km/h 53 % 0 in /  0.0 mm
15:32 81.3 °F /  27.4 °C 62.1 °F /  16.7 °C 30 in /  1015.5 hPa ENE 2 mph /  3.2 km/h 5 mph /  8.0 km/h 52 % 0 in /  0.0 mm
15:42 81.1 °F /  27.3 °C 61.9 °F /  16.6 °C 30 in /  1015.1 hPa ESE 1 mph /  1.6 km/h 7 mph /  11.3 km/h 52 % 0 in /  0.0 mm
15:52 81.5 °F /  27.5 °C 63.9 °F /  17.7 °C 30 in /  1015.1 hPa ESE 3 mph /  4.8 km/h 9 mph /  14.5 km/h 55 % 0 in /  0.0 mm
15:57 81.9 °F /  27.7 °C 63 °F /  17.2 °C 30 in /  1015.1 hPa SSW 3 mph /  4.8 km/h 9 mph /  14.5 km/h 53 % 0 in /  0.0 mm
16:02 82.6 °F /  28.1 °C 62.6 °F /  17.0 °C 30 in /  1015.1 hPa SE 1 mph /  1.6 km/h 9 mph /  14.5 km/h 51 % 0 in /  0.0 mm
16:12 82 °F /  27.8 °C 62.1 °F /  16.7 °C 30 in /  1015.1 hPa East 4 mph /  6.4 km/h 6 mph /  9.7 km/h 51 % 0 in /  0.0 mm
16:17 82 °F /  27.8 °C 62.1 °F /  16.7 °C 30 in /  1015.1 hPa East 2 mph /  3.2 km/h 6 mph /  9.7 km/h 51 % 0 in /  0.0 mm
16:22 82.6 °F /  28.1 °C 62.6 °F /  17.0 °C 30 in /  1015.1 hPa ESE 1 mph /  1.6 km/h 7 mph /  11.3 km/h 51 % 0 in /  0.0 mm
16:32 82.2 °F /  27.9 °C 61.7 °F /  16.5 °C 30 in /  1015.1 hPa SE 3 mph /  4.8 km/h 7 mph /  11.3 km/h 50 % 0 in /  0.0 mm
16:37 82.6 °F /  28.1 °C 61.5 °F /  16.4 °C 30 in /  1015.1 hPa SE 4 mph /  6.4 km/h 8 mph /  12.9 km/h 49 % 0 in /  0.0 mm
16:42 83.1 °F /  28.4 °C 63.7 °F /  17.6 °C 30 in /  1015.1 hPa ENE 3 mph /  4.8 km/h 8 mph /  12.9 km/h 52 % 0 in /  0.0 mm
16:47 83.7 °F /  28.7 °C 63 °F /  17.2 °C 30 in /  1014.8 hPa South 5 mph /  8.0 km/h 8 mph /  12.9 km/h 50 % 0 in /  0.0 mm
16:52 83.8 °F /  28.8 °C 63.1 °F /  17.3 °C 30 in /  1015.1 hPa East 2 mph /  3.2 km/h 5 mph /  8.0 km/h 50 % 0 in /  0.0 mm
16:57 82.9 °F /  28.3 °C 61.9 °F /  16.6 °C 30 in /  1014.8 hPa ENE 2 mph /  3.2 km/h 7 mph /  11.3 km/h 49 % 0 in /  0.0 mm
17:02 82.9 °F /  28.3 °C 61.9 °F /  16.6 °C 30 in /  1014.8 hPa South 3 mph /  4.8 km/h 7 mph /  11.3 km/h 49 % 0 in /  0.0 mm
17:12 83.8 °F /  28.8 °C 62.6 °F /  17.0 °C 30 in /  1014.8 hPa ENE 5 mph /  8.0 km/h 8 mph /  12.9 km/h 49 % 0 in /  0.0 mm
17:17 83.7 °F /  28.7 °C 62.4 °F /  16.9 °C 30 in /  1014.8 hPa East 3 mph /  4.8 km/h 8 mph /  12.9 km/h 49 % 0 in /  0.0 mm
17:22 83.5 °F /  28.6 °C 64 °F /  17.8 °C 30 in /  1014.8 hPa SE 1 mph /  1.6 km/h 7 mph /  11.3 km/h 52 % 0 in /  0.0 mm
17:32 83.7 °F /  28.7 °C 63.7 °F /  17.6 °C 30 in /  1014.8 hPa South 2 mph /  3.2 km/h 7 mph /  11.3 km/h 51 % 0 in /  0.0 mm
17:42 84.4 °F /  29.1 °C 62.6 °F /  17.0 °C 30 in /  1014.8 hPa Calm   6 mph /  9.7 km/h 48 % 0 in /  0.0 mm
17:52 84.2 °F /  29.0 °C 62.4 °F /  16.9 °C 30 in /  1014.8 hPa ESE 1 mph /  1.6 km/h 5 mph /  8.0 km/h 48 % 0 in /  0.0 mm
17:57 84.4 °F /  29.1 °C 61.9 °F /  16.6 °C 30 in /  1014.8 hPa SE 2 mph /  3.2 km/h 5 mph /  8.0 km/h 47 % 0 in /  0.0 mm
18:02 84 °F /  28.9 °C 62.2 °F /  16.8 °C 30 in /  1014.8 hPa Calm   5 mph /  8.0 km/h 48 % 0 in /  0.0 mm
18:12 84 °F /  28.9 °C 61.7 °F /  16.5 °C 30 in /  1014.4 hPa Calm   7 mph /  11.3 km/h 47 % 0 in /  0.0 mm
18:17 84.4 °F /  29.1 °C 61.9 °F /  16.6 °C 30 in /  1014.4 hPa Calm   7 mph /  11.3 km/h 47 % 0 in /  0.0 mm
18:22 84.4 °F /  29.1 °C 62.6 °F /  17.0 °C 30 in /  1014.8 hPa SE 2 mph /  3.2 km/h 3 mph /  4.8 km/h 48 % 0 in /  0.0 mm
18:32 84.6 °F /  29.2 °C 60.8 °F /  16.0 °C 30 in /  1014.4 hPa ESE 2 mph /  3.2 km/h 5 mph /  8.0 km/h 45 % 0 in /  0.0 mm
18:42 84 °F /  28.9 °C 61 °F /  16.1 °C 30 in /  1014.4 hPa ESE 1 mph /  1.6 km/h 4 mph /  6.4 km/h 46 % 0 in /  0.0 mm
18:47 83.8 °F /  28.8 °C 62.1 °F /  16.7 °C 30 in /  1014.4 hPa East 1 mph /  1.6 km/h 4 mph /  6.4 km/h 48 % 0 in /  0.0 mm
18:52 83.8 °F /  28.8 °C 62.1 °F /  16.7 °C 30 in /  1014.4 hPa Calm   3 mph /  4.8 km/h 48 % 0 in /  0.0 mm
19:02 83.7 °F /  28.7 °C 64.2 °F /  17.9 °C 29.9 in /  1014.1 hPa SE 1 mph /  1.6 km/h 4 mph /  6.4 km/h 52 % 0 in /  0.0 mm
19:12 82.9 °F /  28.3 °C 63 °F /  17.2 °C 29.9 in /  1014.1 hPa Calm   4 mph /  6.4 km/h 51 % 0 in /  0.0 mm
19:17 82.6 °F /  28.1 °C 63.1 °F /  17.3 °C 29.9 in /  1014.1 hPa ESE 2 mph /  3.2 km/h 4 mph /  6.4 km/h 52 % 0 in /  0.0 mm
19:22 82 °F /  27.8 °C 63.1 °F /  17.3 °C 29.9 in /  1014.1 hPa ENE 3 mph /  4.8 km/h 4 mph /  6.4 km/h 53 % 0 in /  0.0 mm
19:32 81.9 °F /  27.7 °C 63 °F /  17.2 °C 30 in /  1014.4 hPa East 3 mph /  4.8 km/h 5 mph /  8.0 km/h 53 % 0 in /  0.0 mm
19:37 81.7 °F /  27.6 °C 63.5 °F /  17.5 °C 29.9 in /  1014.1 hPa ENE 1 mph /  1.6 km/h 5 mph /  8.0 km/h 54 % 0 in /  0.0 mm
19:42 81.7 °F /  27.6 °C 63.9 °F /  17.7 °C 29.9 in /  1014.1 hPa East 1 mph /  1.6 km/h 5 mph /  8.0 km/h 55 % 0 in /  0.0 mm
19:47 81.7 °F /  27.6 °C 63.9 °F /  17.7 °C 30 in /  1014.4 hPa Calm   4 mph /  6.4 km/h 55 % 0 in /  0.0 mm
19:52 81.5 °F /  27.5 °C 63.3 °F /  17.4 °C 30 in /  1014.4 hPa Calm   4 mph /  6.4 km/h 54 % 0 in /  0.0 mm
20:02 81.7 °F /  27.6 °C 63.5 °F /  17.5 °C 30 in /  1014.4 hPa East 1 mph /  1.6 km/h 4 mph /  6.4 km/h 54 % 0 in /  0.0 mm
20:12 81.3 °F /  27.4 °C 63.7 °F /  17.6 °C 30 in /  1014.4 hPa Calm   3 mph /  4.8 km/h 55 % 0 in /  0.0 mm
20:17 81.1 °F /  27.3 °C 63.5 °F /  17.5 °C 30 in /  1014.4 hPa Calm   3 mph /  4.8 km/h 55 % 0 in /  0.0 mm
20:22 81.1 °F /  27.3 °C 64 °F /  17.8 °C 30 in /  1014.4 hPa Calm   2 mph /  3.2 km/h 56 % 0 in /  0.0 mm
20:27 81 °F /  27.2 °C 63.9 °F /  17.7 °C 30 in /  1014.4 hPa Calm   1 mph /  1.6 km/h 56 % 0 in /  0.0 mm
20:32 80.8 °F /  27.1 °C 63.7 °F /  17.6 °C 30 in /  1014.4 hPa Calm     56 % 0 in /  0.0 mm
20:37 80.2 °F /  26.8 °C 63.1 °F /  17.3 °C 30 in /  1014.4 hPa ENE 2 mph /  3.2 km/h 2 mph /  3.2 km/h 56 % 0 in /  0.0 mm
20:42 79.9 °F /  26.6 °C 63.3 °F /  17.4 °C 30 in /  1014.4 hPa East 2 mph /  3.2 km/h 2 mph /  3.2 km/h 57 % 0 in /  0.0 mm
20:52 79.2 °F /  26.2 °C 63.1 °F /  17.3 °C 30 in /  1014.4 hPa East 2 mph /  3.2 km/h 3 mph /  4.8 km/h 58 % 0 in /  0.0 mm
20:57 78.6 °F /  25.9 °C 63.1 °F /  17.3 °C 30 in /  1014.4 hPa Calm   3 mph /  4.8 km/h 59 % 0 in /  0.0 mm
21:02 78.4 °F /  25.8 °C 62.4 °F /  16.9 °C 30 in /  1014.4 hPa Calm   3 mph /  4.8 km/h 58 % 0 in /  0.0 mm
21:12 77.5 °F /  25.3 °C 62.1 °F /  16.7 °C 30 in /  1014.4 hPa East 3 mph /  4.8 km/h 3 mph /  4.8 km/h 59 % 0 in /  0.0 mm
21:17 77.4 °F /  25.2 °C 62.4 °F /  16.9 °C 30 in /  1014.4 hPa Calm   3 mph /  4.8 km/h 60 % 0 in /  0.0 mm
21:22 77 °F /  25.0 °C 62.1 °F /  16.7 °C 30 in /  1014.8 hPa Calm   3 mph /  4.8 km/h 60 % 0 in /  0.0 mm
21:32 75.7 °F /  24.3 °C 62.2 °F /  16.8 °C 30 in /  1014.4 hPa Calm   3 mph /  4.8 km/h 63 % 0 in /  0.0 mm
21:37 75 °F /  23.9 °C 62.1 °F /  16.7 °C 30 in /  1014.4 hPa Calm   1 mph /  1.6 km/h 64 % 0 in /  0.0 mm
21:42 74.5 °F /  23.6 °C 62.4 °F /  16.9 °C 30 in /  1014.8 hPa Calm   1 mph /  1.6 km/h 66 % 0 in /  0.0 mm
21:47 73.6 °F /  23.1 °C 61.9 °F /  16.6 °C 30 in /  1014.8 hPa Calm     67 % 0 in /  0.0 mm
21:52 72.9 °F /  22.7 °C 61.7 °F /  16.5 °C 30 in /  1014.8 hPa Calm     68 % 0 in /  0.0 mm
22:02 72.3 °F /  22.4 °C 61.2 °F /  16.2 °C 30 in /  1014.8 hPa Calm   1 mph /  1.6 km/h 68 % 0 in /  0.0 mm
22:12 72.1 °F /  22.3 °C 61 °F /  16.1 °C 30 in /  1014.8 hPa Calm   1 mph /  1.6 km/h 68 % 0 in /  0.0 mm
22:17 71.8 °F /  22.1 °C 60.6 °F /  15.9 °C 30 in /  1015.1 hPa Calm     68 % 0 in /  0.0 mm
22:22 71.1 °F /  21.7 °C 60.8 °F /  16.0 °C 30 in /  1015.1 hPa Calm     70 % 0 in /  0.0 mm
22:32 69.8 °F /  21.0 °C 61.2 °F /  16.2 °C 30 in /  1015.1 hPa Calm     74 % 0 in /  0.0 mm
22:37 69.6 °F /  20.9 °C 60.6 °F /  15.9 °C 30 in /  1015.1 hPa Calm     73 % 0 in /  0.0 mm
22:42 70 °F /  21.1 °C 60.6 °F /  15.9 °C 30 in /  1015.1 hPa Calm     72 % 0 in /  0.0 mm
22:47 70 °F /  21.1 °C 60.1 °F /  15.6 °C 30 in /  1015.1 hPa NE 1 mph /  1.6 km/h   71 % 0 in /  0.0 mm
22:52 69.6 °F /  20.9 °C 61 °F /  16.1 °C 30 in /  1014.8 hPa NNE 3 mph /  4.8 km/h   74 % 0 in /  0.0 mm
22:57 68.5 °F /  20.3 °C 60.6 °F /  15.9 °C 30 in /  1014.8 hPa NNE 3 mph /  4.8 km/h 4 mph /  6.4 km/h 76 % 0 in /  0.0 mm
23:02 68 °F /  20.0 °C 60.1 °F /  15.6 °C 30 in /  1014.8 hPa North 2 mph /  3.2 km/h 4 mph /  6.4 km/h 76 % 0 in /  0.0 mm
23:12 67.8 °F /  19.9 °C 60.3 °F /  15.7 °C 30 in /  1014.8 hPa NW 1 mph /  1.6 km/h 4 mph /  6.4 km/h 77 % 0 in /  0.0 mm
23:17 67.8 °F /  19.9 °C 60.3 °F /  15.7 °C 30 in /  1014.8 hPa Calm   4 mph /  6.4 km/h 77 % 0 in /  0.0 mm
23:22 68.2 °F /  20.1 °C 60.6 °F /  15.9 °C 30 in /  1014.8 hPa NNE 1 mph /  1.6 km/h 3 mph /  4.8 km/h 77 % 0 in /  0.0 mm
23:27 68.2 °F /  20.1 °C 60.6 °F /  15.9 °C 30 in /  1014.8 hPa WNW 1 mph /  1.6 km/h 2 mph /  3.2 km/h 77 % 0 in /  0.0 mm
23:32 67.3 °F /  19.6 °C 60.3 °F /  15.7 °C 30 in /  1014.8 hPa WNW 2 mph /  3.2 km/h 2 mph /  3.2 km/h 78 % 0 in /  0.0 mm
23:37 66.7 °F /  19.3 °C 60.4 °F /  15.8 °C 30 in /  1015.1 hPa WNW 1 mph /  1.6 km/h 2 mph /  3.2 km/h 80 % 0 in /  0.0 mm
23:42 66.9 °F /  19.4 °C 60.6 °F /  15.9 °C 30 in /  1014.8 hPa Calm   2 mph /  3.2 km/h 80 % 0 in /  0.0 mm
23:47 67.5 °F /  19.7 °C 60.4 °F /  15.8 °C 30 in /  1014.8 hPa NNE 1 mph /  1.6 km/h 2 mph /  3.2 km/h 78 % 0 in /  0.0 mm
23:52 67.6 °F /  19.8 °C 60.3 °F /  15.7 °C 30 in /  1014.8 hPa NNE 1 mph /  1.6 km/h 2 mph /  3.2 km/h 77 % 0 in /  0.0 mm
Meteo18
Compliments of Weather Underground - 4 mb

Script developed by  Jim McMurry - jmcmurry@mwt.net Adapted for the template by  Wim van der Kuil - Leuven-Template.eu

You find our weather info also at:

European Weather Network

Weather Underground

Equipment we use:

Weather-station
Davis Vue

Weather-program
Meteohub

Weather-server
Raspberry PI 2 B+

Provider
1 and 1

Davis Vue

Meteohub

Raspberry PI 2 B+

1 and 1